createdAt,value
2018-10-05T00:00:08.647Z,98745.59
2018-10-05T00:01:11.445Z,98742.06
2018-10-05T00:02:14.241Z,98742.36
2018-10-05T00:03:17.027Z,98746.69
2018-10-05T00:04:20.244Z,98744.77
2018-10-05T00:05:23.021Z,98742.30
2018-10-05T00:06:25.766Z,98747.16
2018-10-05T00:07:28.580Z,98741.80
2018-10-05T00:08:31.480Z,98745.41
2018-10-05T00:09:34.246Z,98742.73
2018-10-05T00:10:37.473Z,98738.30
2018-10-05T00:11:40.220Z,98737.47
2018-10-05T00:12:43.106Z,98737.45
2018-10-05T00:13:46.123Z,98739.52
2018-10-05T00:14:49.233Z,98740.55
2018-10-05T00:15:52.144Z,98740.52
2018-10-05T00:16:54.955Z,98739.16
2018-10-05T00:17:57.836Z,98739.93
2018-10-05T00:19:01.093Z,98738.25
2018-10-05T00:20:05.649Z,98745.02
2018-10-05T00:21:08.823Z,98742.94
2018-10-05T00:22:11.589Z,98741.81
2018-10-05T00:23:14.643Z,98748.03
2018-10-05T00:24:17.400Z,98744.23
2018-10-05T00:25:20.920Z,98743.14
2018-10-05T00:26:23.708Z,98745.27
2018-10-05T00:27:26.524Z,98742.84
2018-10-05T00:28:29.357Z,98740.94
2018-10-05T00:29:32.482Z,98741.99
2018-10-05T00:30:35.251Z,98746.32
2018-10-05T00:31:38.346Z,98741.78
2018-10-05T00:32:41.119Z,98738.61
2018-10-05T00:33:44.910Z,98733.31
2018-10-05T00:34:47.667Z,98728.98
2018-10-05T00:35:51.029Z,98730.86
2018-10-05T00:36:53.759Z,98730.01
2018-10-05T00:37:56.603Z,98732.16
2018-10-05T00:38:59.390Z,98731.92
2018-10-05T00:40:02.200Z,98731.09
2018-10-05T00:41:04.938Z,98729.19
2018-10-05T00:42:08.182Z,98732.62
2018-10-05T00:43:13.833Z,98729.66
2018-10-05T00:44:16.584Z,98725.63
2018-10-05T00:45:19.382Z,98724.33
2018-10-05T00:46:23.066Z,98729.50
2018-10-05T00:47:25.808Z,98721.18
2018-10-05T00:48:29.757Z,98720.36
2018-10-05T00:49:32.844Z,98721.20
2018-10-05T00:50:36.089Z,98715.50
2018-10-05T00:51:39.245Z,98719.88
2018-10-05T00:52:42.118Z,98719.86
2018-10-05T00:53:44.843Z,98715.53
2018-10-05T00:54:48.133Z,98718.94
2018-10-05T00:55:51.280Z,98716.23
2018-10-05T00:56:54.075Z,98721.68
2018-10-05T00:57:57.522Z,98717.09
2018-10-05T00:59:00.779Z,98718.44
2018-10-05T01:00:04.400Z,98716.53
2018-10-05T01:01:07.994Z,98720.12
2018-10-05T01:02:10.801Z,98713.94
2018-10-05T01:03:13.559Z,98714.49
2018-10-05T01:04:16.382Z,98712.61
2018-10-05T01:05:19.188Z,98712.53
2018-10-05T01:06:22.028Z,98706.30
2018-10-05T01:07:25.192Z,98703.61
2018-10-05T01:08:28.829Z,98702.29
2018-10-05T01:09:33.174Z,98700.14
2018-10-05T01:10:36.558Z,98701.02
2018-10-05T01:11:39.341Z,98700.06
2018-10-05T01:12:42.736Z,98701.73
2018-10-05T01:13:46.020Z,98701.59
2018-10-05T01:14:48.897Z,98705.45
2018-10-05T01:15:51.903Z,98699.33
2018-10-05T01:16:54.781Z,98700.98
2018-10-05T01:17:58.837Z,98701.73
2018-10-05T01:19:02.954Z,98700.57
2018-10-05T01:20:06.276Z,98691.56
2018-10-05T01:21:09.044Z,98695.28
2018-10-05T01:22:12.421Z,98689.29
2018-10-05T01:23:15.195Z,98695.87
2018-10-05T01:24:18.395Z,98691.91
2018-10-05T01:25:21.170Z,98691.16
2018-10-05T01:26:24.364Z,98686.88
2018-10-05T01:27:28.521Z,98687.70
2018-10-05T01:28:31.277Z,98690.45
2018-10-05T01:29:34.010Z,98685.59
2018-10-05T01:30:36.925Z,98684.20
2018-10-05T01:31:39.670Z,98677.99
2018-10-05T01:32:45.465Z,98672.58
2018-10-05T01:33:48.256Z,98675.48
2018-10-05T01:34:51.074Z,98670.82
2018-10-05T01:35:53.815Z,98673.27
2018-10-05T01:36:56.602Z,98674.59
2018-10-05T01:37:59.327Z,98669.69
2018-10-05T01:39:02.560Z,98665.60
2018-10-05T01:40:05.377Z,98661.52
2018-10-05T01:41:08.143Z,98664.02
2018-10-05T01:42:10.911Z,98662.42
2018-10-05T01:43:13.651Z,98663.83
2018-10-05T01:44:16.426Z,98665.67
2018-10-05T01:45:19.610Z,98663.77
2018-10-05T01:46:22.337Z,98664.27
2018-10-05T01:47:25.507Z,98660.72
2018-10-05T01:48:28.285Z,98658.05
2018-10-05T01:49:31.028Z,98664.56
2018-10-05T01:50:33.834Z,98663.23
2018-10-05T01:51:37.678Z,98656.60
2018-10-05T01:52:40.435Z,98659.70
2018-10-05T01:53:43.274Z,98659.00
2018-10-05T01:54:46.040Z,98655.48
2018-10-05T01:55:48.796Z,98653.04
2018-10-05T01:56:51.540Z,98652.80
2018-10-05T01:57:54.779Z,98652.52
2018-10-05T01:58:57.506Z,98653.84
2018-10-05T02:00:00.261Z,98654.41
2018-10-05T02:01:03.005Z,98646.13
2018-10-05T02:02:05.784Z,98648.30
2018-10-05T02:03:08.550Z,98647.45
2018-10-05T02:04:11.707Z,98654.50
2018-10-05T02:05:14.468Z,98649.59
2018-10-05T02:06:17.396Z,98652.24
2018-10-05T02:07:20.153Z,98655.74
2018-10-05T02:08:22.935Z,98655.50
2018-10-05T02:09:25.700Z,98650.58
2018-10-05T02:10:28.759Z,98646.45
2018-10-05T02:11:31.487Z,98655.10
2018-10-05T02:12:34.379Z,98646.70
2018-10-05T02:13:37.322Z,98655.62
2018-10-05T02:14:40.719Z,98648.66
2018-10-05T02:15:43.467Z,98654.02
2018-10-05T02:16:46.647Z,98652.73
2018-10-05T02:17:49.411Z,98652.22
2018-10-05T02:18:52.180Z,98651.43
2018-10-05T02:19:54.988Z,98650.36
2018-10-05T02:20:57.769Z,98651.14
2018-10-05T02:22:00.504Z,98638.44
2018-10-05T02:23:03.648Z,98640.59
2018-10-05T02:24:06.488Z,98646.50
2018-10-05T02:25:09.231Z,98637.58
2018-10-05T02:26:12.119Z,98644.09
2018-10-05T02:27:14.952Z,98636.84
2018-10-05T02:28:17.715Z,98632.31
2018-10-05T02:29:21.014Z,98632.93
2018-10-05T02:30:23.835Z,98630.54
2018-10-05T02:31:26.618Z,98637.56
2018-10-05T02:32:29.404Z,98629.41
2018-10-05T02:33:32.252Z,98625.84
2018-10-05T02:34:35.358Z,98630.17
2018-10-05T02:35:38.540Z,98627.80
2018-10-05T02:36:41.314Z,98628.05
2018-10-05T02:37:44.089Z,98626.16
2018-10-05T02:38:46.848Z,98623.97
2018-10-05T02:39:49.594Z,98624.50
2018-10-05T02:40:52.370Z,98618.84
2018-10-05T02:41:55.585Z,98620.69
2018-10-05T02:42:58.316Z,98625.00
2018-10-05T02:44:01.061Z,98622.29
2018-10-05T02:45:03.814Z,98617.48
2018-10-05T02:46:06.550Z,98621.27
2018-10-05T02:47:09.295Z,98618.82
2018-10-05T02:48:12.071Z,98614.78
2018-10-05T02:49:16.238Z,98619.44
2018-10-05T02:50:19.796Z,98618.34
2018-10-05T02:51:22.760Z,98611.06
2018-10-05T02:52:25.825Z,98611.13
2018-10-05T02:53:29.968Z,98611.42
2018-10-05T02:54:32.745Z,98609.51
2018-10-05T02:55:35.506Z,98606.83
2018-10-05T02:56:38.305Z,98609.05
2018-10-05T02:57:41.416Z,98612.08
2018-10-05T02:58:44.221Z,98609.94
2018-10-05T02:59:47.307Z,98607.98
2018-10-05T03:00:51.707Z,98608.20
2018-10-05T03:01:54.459Z,98602.21
2018-10-05T03:02:57.365Z,98603.80
2018-10-05T03:04:03.118Z,98607.58
2018-10-05T03:05:06.149Z,98600.86
2018-10-05T03:06:09.683Z,98606.48
2018-10-05T03:07:12.456Z,98609.22
2018-10-05T03:08:15.189Z,98604.63
2018-10-05T03:09:18.055Z,98599.75
2018-10-05T03:10:20.796Z,98610.84
2018-10-05T03:11:23.673Z,98600.05
2018-10-05T03:12:26.933Z,98602.76
2018-10-05T03:13:29.711Z,98605.70
2018-10-05T03:14:34.004Z,98597.09
2018-10-05T03:15:37.891Z,98594.69
2018-10-05T03:16:41.577Z,98605.81
2018-10-05T03:17:44.306Z,98603.41
2018-10-05T03:18:47.507Z,98596.43
2018-10-05T03:19:50.393Z,98598.06
2018-10-05T03:20:53.810Z,98599.41
2018-10-05T03:21:56.573Z,98598.33
2018-10-05T03:22:59.358Z,98597.00
2018-10-05T03:24:02.519Z,98598.91
2018-10-05T03:25:05.675Z,98595.89
2018-10-05T03:26:08.447Z,98595.59
2018-10-05T03:27:11.954Z,98596.39
2018-10-05T03:28:14.727Z,98597.44
2018-10-05T03:29:17.486Z,98594.94
2018-10-05T03:30:20.240Z,98599.52
2018-10-05T03:31:23.307Z,98598.41
2018-10-05T03:32:26.119Z,98594.34
2018-10-05T03:33:29.075Z,98593.53
2018-10-05T03:34:31.850Z,98598.66
2018-10-05T03:35:34.694Z,98595.98
2018-10-05T03:36:37.455Z,98586.28
2018-10-05T03:37:40.641Z,98586.88
2018-10-05T03:38:43.435Z,98585.82
2018-10-05T03:39:47.815Z,98589.60
2018-10-05T03:40:50.684Z,98588.77
2018-10-05T03:41:53.494Z,98589.11
2018-10-05T03:42:56.381Z,98589.70
2018-10-05T03:44:00.662Z,98587.25
2018-10-05T03:45:03.419Z,98590.23
2018-10-05T03:46:06.735Z,98588.97
2018-10-05T03:47:09.818Z,98589.77
2018-10-05T03:48:12.575Z,98587.33
2018-10-05T03:49:15.626Z,98588.41
2018-10-05T03:50:18.736Z,98591.97
2018-10-05T03:51:22.004Z,98588.21
2018-10-05T03:52:25.305Z,98581.49
2018-10-05T03:53:29.120Z,98583.08
2018-10-05T03:54:32.630Z,98583.91
2018-10-05T03:55:35.769Z,98577.97
2018-10-05T03:56:39.008Z,98581.78
2018-10-05T03:57:41.840Z,98583.70
2018-10-05T03:58:44.698Z,98581.02
2018-10-05T03:59:47.537Z,98580.47
2018-10-05T04:00:50.873Z,98576.47
2018-10-05T04:01:54.107Z,98572.97
2018-10-05T04:02:57.570Z,98577.80
2018-10-05T04:04:00.561Z,98576.44
2018-10-05T04:05:03.660Z,98570.53
2018-10-05T04:06:06.543Z,98571.38
2018-10-05T04:07:09.415Z,98572.46
2018-10-05T04:08:12.171Z,98576.53
2018-10-05T04:09:16.402Z,98574.86
2018-10-05T04:10:20.242Z,98571.10
2018-10-05T04:11:23.346Z,98573.26
2018-10-05T04:12:26.127Z,98567.63
2018-10-05T04:13:28.976Z,98567.87
2018-10-05T04:14:31.723Z,98564.37
2018-10-05T04:15:35.997Z,98567.32
2018-10-05T04:16:40.052Z,98566.24
2018-10-05T04:17:44.255Z,98570.32
2018-10-05T04:18:47.157Z,98569.56
2018-10-05T04:19:51.002Z,98568.20
2018-10-05T04:20:54.051Z,98562.56
2018-10-05T04:21:57.228Z,98562.56
2018-10-05T04:23:00.014Z,98565.79
2018-10-05T04:24:02.802Z,98563.34
2018-10-05T04:25:06.037Z,98571.14
2018-10-05T04:26:09.015Z,98562.20
2018-10-05T04:27:11.956Z,98556.24
2018-10-05T04:28:15.282Z,98562.45
2018-10-05T04:29:18.073Z,98560.86
2018-10-05T04:30:21.683Z,98560.30
2018-10-05T04:31:24.458Z,98556.60
2018-10-05T04:32:28.170Z,98556.39
2018-10-05T04:33:30.986Z,98558.00
2018-10-05T04:34:34.131Z,98563.16
2018-10-05T04:35:37.227Z,98562.64
2018-10-05T04:36:40.115Z,98567.44
2018-10-05T04:37:42.888Z,98555.31
2018-10-05T04:38:52.649Z,98557.99
2018-10-05T04:39:55.421Z,98555.86
2018-10-05T04:40:58.545Z,98558.84
2018-10-05T04:42:01.312Z,98551.55
2018-10-05T04:43:04.093Z,98557.22
2018-10-05T04:44:06.858Z,98555.36
2018-10-05T04:45:09.643Z,98553.75
2018-10-05T04:46:12.412Z,98558.89
2018-10-05T04:47:16.184Z,98563.47
2018-10-05T04:48:20.788Z,98561.03
2018-10-05T04:49:24.493Z,98559.92
2018-10-05T04:50:28.045Z,98562.03
2018-10-05T04:51:30.902Z,98563.39
2018-10-05T04:52:34.450Z,98561.19
2018-10-05T04:53:38.962Z,98558.77
2018-10-05T04:54:41.981Z,98564.14
2018-10-05T04:55:45.876Z,98557.99
2018-10-05T04:56:48.949Z,98553.98
2018-10-05T04:57:52.788Z,98556.17
2018-10-05T04:58:55.617Z,98555.08
2018-10-05T04:59:58.880Z,98555.92
2018-10-05T05:01:01.647Z,98552.67
2018-10-05T05:02:04.420Z,98550.27
2018-10-05T05:03:08.208Z,98555.08
2018-10-05T05:04:12.010Z,98558.30
2018-10-05T05:05:15.518Z,98549.67
2018-10-05T05:06:19.572Z,98550.75
2018-10-05T05:07:23.699Z,98554.02
2018-10-05T05:08:26.851Z,98550.52
2018-10-05T05:09:29.666Z,98556.72
2018-10-05T05:10:33.558Z,98555.89
2018-10-05T05:11:36.442Z,98552.36
2018-10-05T05:12:39.752Z,98548.84
2018-10-05T05:13:42.536Z,98546.72
2018-10-05T05:14:45.303Z,98555.62
2018-10-05T05:15:48.111Z,98549.14
2018-10-05T05:16:50.854Z,98551.03
2018-10-05T05:17:53.902Z,98554.56
2018-10-05T05:18:57.291Z,98549.68
2018-10-05T05:20:00.439Z,98541.88
2018-10-05T05:21:03.367Z,98544.30
2018-10-05T05:22:07.724Z,98546.99
2018-10-05T05:23:10.658Z,98550.47
2018-10-05T05:24:13.716Z,98541.02
2018-10-05T05:25:17.111Z,98546.98
2018-10-05T05:26:20.513Z,98540.25
2018-10-05T05:27:23.534Z,98540.48
2018-10-05T05:28:26.292Z,98535.91
2018-10-05T05:29:29.195Z,98539.92
2018-10-05T05:30:31.994Z,98531.26
2018-10-05T05:44:41.412Z,98531.91
2018-10-05T05:45:44.451Z,98530.27
2018-10-05T05:46:47.937Z,98531.88
2018-10-05T05:47:51.188Z,98535.94
2018-10-05T05:48:54.832Z,98532.97
2018-10-05T05:49:58.066Z,98532.16
2018-10-05T05:51:03.016Z,98530.59
2018-10-05T05:52:06.192Z,98527.88
2018-10-05T05:53:09.222Z,98531.61
2018-10-05T05:54:12.460Z,98528.08
2018-10-05T05:55:15.757Z,98532.63
2018-10-05T05:56:22.820Z,98532.59
2018-10-05T05:57:25.830Z,98526.03
2018-10-05T05:58:28.637Z,98527.05
2018-10-05T05:59:32.591Z,98525.87
2018-10-05T06:00:35.427Z,98520.16
2018-10-05T06:01:38.206Z,98517.40
2018-10-05T06:02:42.264Z,98523.02
2018-10-05T06:03:45.381Z,98518.89
2018-10-05T06:04:48.212Z,98518.14
2018-10-05T06:05:51.066Z,98520.84
2018-10-05T06:06:55.041Z,98521.30
2018-10-05T06:07:57.917Z,98522.27
2018-10-05T06:09:01.004Z,98524.83
2018-10-05T06:10:03.910Z,98523.98
2018-10-05T06:11:06.855Z,98520.20
2018-10-05T06:12:09.655Z,98526.61
2018-10-05T06:13:12.996Z,98522.74
2018-10-05T06:14:18.707Z,98527.51
2018-10-05T06:15:22.348Z,98521.28
2018-10-05T06:16:25.626Z,98531.00
2018-10-05T06:17:30.725Z,98526.04
2018-10-05T06:18:34.218Z,98533.39
2018-10-05T06:19:37.557Z,98528.72
2018-10-05T06:20:40.622Z,98535.59
2018-10-05T06:21:44.034Z,98534.27
2018-10-05T06:22:46.791Z,98534.00
2018-10-05T06:23:49.705Z,98532.93
2018-10-05T06:24:52.616Z,98534.42
2018-10-05T06:25:55.473Z,98532.75
2018-10-05T06:26:58.341Z,98539.48
2018-10-05T06:28:01.429Z,98542.98
2018-10-05T06:29:05.067Z,98534.47
2018-10-05T06:30:09.527Z,98536.18
2018-10-05T06:31:12.776Z,98542.34
2018-10-05T06:32:15.766Z,98537.64
2018-10-05T06:33:19.684Z,98534.45
2018-10-05T06:34:22.860Z,98536.61
2018-10-05T06:35:25.640Z,98533.82
2018-10-05T06:36:28.581Z,98538.19
2018-10-05T06:37:32.305Z,98535.97
2018-10-05T06:38:35.471Z,98531.90
2018-10-05T06:39:38.242Z,98531.29
2018-10-05T06:40:42.181Z,98533.83
2018-10-05T06:41:45.221Z,98536.91
2018-10-05T06:42:47.986Z,98528.33
2018-10-05T06:43:50.764Z,98533.27
2018-10-05T06:44:53.620Z,98528.84
2018-10-05T06:45:56.446Z,98525.03
2018-10-05T06:47:00.050Z,98529.52
2018-10-05T06:48:03.616Z,98532.34
2018-10-05T06:49:06.462Z,98529.95
2018-10-05T06:50:09.648Z,98526.59
2018-10-05T06:51:12.462Z,98531.17
2018-10-05T06:52:15.356Z,98531.11
2018-10-05T06:53:18.484Z,98530.83
2018-10-05T06:54:22.385Z,98531.96
2018-10-05T06:55:25.249Z,98527.39
2018-10-05T06:56:28.126Z,98524.20
2018-10-05T06:57:30.902Z,98524.56
2018-10-05T06:58:33.665Z,98523.27
2018-10-05T06:59:37.464Z,98522.02
2018-10-05T07:00:40.334Z,98516.33
2018-10-05T07:01:43.827Z,98513.73
2018-10-05T07:02:47.375Z,98517.94
2018-10-05T07:03:51.389Z,98518.17
2018-10-05T07:04:55.090Z,98513.09
2018-10-05T07:05:58.296Z,98513.50
2018-10-05T07:07:02.203Z,98520.55
2018-10-05T07:08:05.388Z,98517.84
2018-10-05T07:09:08.780Z,98515.26
2018-10-05T07:10:11.553Z,98510.19
2018-10-05T07:11:14.988Z,98510.36
2018-10-05T07:12:18.397Z,98513.31
2018-10-05T07:13:21.159Z,98510.19
2018-10-05T07:14:23.960Z,98522.13
2018-10-05T07:15:26.768Z,98512.66
2018-10-05T07:16:29.830Z,98523.63
2018-10-05T07:17:33.623Z,98517.45
2018-10-05T07:18:37.415Z,98521.02
2018-10-05T07:19:41.701Z,98512.05
2018-10-05T07:20:44.462Z,98513.90
2018-10-05T07:21:47.282Z,98509.27
2018-10-05T07:22:51.101Z,98506.08
2018-10-05T07:23:53.870Z,98513.97
2018-10-05T07:24:57.843Z,98515.08
2018-10-05T07:26:01.989Z,98512.84
2018-10-05T07:27:05.711Z,98509.86
2018-10-05T07:28:09.590Z,98513.22
2018-10-05T07:29:12.504Z,98506.63
2018-10-05T07:30:15.835Z,98502.90
2018-10-05T07:31:20.214Z,98502.21
2018-10-05T07:32:23.724Z,98504.75
2018-10-05T07:33:27.511Z,98511.98
2018-10-05T07:34:31.506Z,98504.64
2018-10-05T07:35:35.627Z,98501.75
2018-10-05T07:36:40.594Z,98502.09
2018-10-05T07:37:43.703Z,98501.23
2018-10-05T07:38:46.485Z,98498.26
2018-10-05T07:39:49.507Z,98502.73
2018-10-05T07:40:52.316Z,98500.08
2018-10-05T07:41:55.857Z,98503.17
2018-10-05T07:42:58.657Z,98500.87
2018-10-05T07:44:01.750Z,98496.95
2018-10-05T07:45:04.575Z,98503.31
2018-10-05T07:46:07.331Z,98505.27
2018-10-05T07:47:10.105Z,98499.32
2018-10-05T07:48:14.443Z,98501.06
2018-10-05T07:49:17.489Z,98500.25
2018-10-05T07:50:20.693Z,98503.25
2018-10-05T07:51:23.492Z,98499.69
2018-10-05T07:52:26.298Z,98501.25
2018-10-05T07:53:29.175Z,98494.38
2018-10-05T07:54:32.943Z,98498.38
2018-10-05T07:55:35.755Z,98492.89
2018-10-05T07:56:39.649Z,98496.20
2018-10-05T07:57:42.481Z,98496.16
2018-10-05T07:58:46.323Z,98494.39
2018-10-05T07:59:50.726Z,98494.89
2018-10-05T08:00:54.519Z,98497.44
2018-10-05T08:01:57.403Z,98494.16
2018-10-05T08:03:01.697Z,98499.91
2018-10-05T08:04:06.493Z,98497.26
2018-10-05T08:05:10.666Z,98496.52
2018-10-05T08:06:13.542Z,98486.48
2018-10-05T08:07:16.627Z,98485.78
2018-10-05T08:08:21.860Z,98485.25
2018-10-05T08:09:25.720Z,98485.24
2018-10-05T08:10:28.595Z,98488.22
2018-10-05T08:11:31.609Z,98487.72
2018-10-05T08:12:34.442Z,98489.75
2018-10-05T08:13:38.041Z,98487.83
2018-10-05T08:14:41.958Z,98482.63
2018-10-05T08:15:45.267Z,98487.64
2018-10-05T08:16:48.050Z,98486.84
2018-10-05T08:17:50.831Z,98492.06
2018-10-05T08:18:54.331Z,98491.41
2018-10-05T08:19:57.141Z,98493.97
2018-10-05T08:20:59.949Z,98492.39
2018-10-05T08:22:05.004Z,98493.44
2018-10-05T08:23:08.434Z,98490.16
2018-10-05T08:24:11.216Z,98489.48
2018-10-05T08:25:14.026Z,98489.23
2018-10-05T08:26:16.884Z,98483.96
2018-10-05T08:27:19.712Z,98486.73
2018-10-05T08:28:22.956Z,98482.59
2018-10-05T08:29:25.815Z,98487.36
2018-10-05T08:30:28.614Z,98479.14
2018-10-05T08:31:32.630Z,98481.08
2018-10-05T08:32:36.301Z,98477.74
2018-10-05T08:33:39.896Z,98475.30
2018-10-05T08:34:43.936Z,98475.16
2018-10-05T08:35:46.809Z,98470.06
2018-10-05T08:36:50.390Z,98472.49
2018-10-05T08:37:53.172Z,98474.75
2018-10-05T08:38:56.784Z,98478.86
2018-10-05T08:40:00.280Z,98473.94
2018-10-05T08:41:03.381Z,98477.09
2018-10-05T08:42:06.167Z,98467.77
2018-10-05T08:43:08.945Z,98467.10
2018-10-05T08:44:12.645Z,98471.78
2018-10-05T08:45:15.433Z,98473.91
2018-10-05T08:46:18.900Z,98464.98
2018-10-05T08:47:22.199Z,98465.83
2018-10-05T08:48:25.091Z,98465.33
2018-10-05T08:49:28.705Z,98461.34
2018-10-05T08:50:31.511Z,98466.22
2018-10-05T08:51:34.350Z,98463.28
2018-10-05T08:52:37.199Z,98461.44
2018-10-05T08:53:40.002Z,98459.98
2018-10-05T08:54:42.823Z,98451.24
2018-10-05T08:55:45.639Z,98447.34
2018-10-05T08:56:48.706Z,98452.63
2018-10-05T08:57:53.314Z,98450.77
2018-10-05T08:58:57.023Z,98449.89
2018-10-05T09:00:01.619Z,98450.10
2018-10-05T09:01:06.324Z,98447.89
2018-10-05T09:02:09.094Z,98449.48
2018-10-05T09:03:12.391Z,98438.14
2018-10-05T09:04:15.168Z,98437.58
2018-10-05T09:05:17.952Z,98435.69
2018-10-05T09:06:21.076Z,98434.77
2018-10-05T09:07:23.838Z,98433.34
2018-10-05T09:08:27.195Z,98432.56
2018-10-05T09:09:32.771Z,98432.16
2018-10-05T09:10:35.559Z,98428.78
2018-10-05T09:11:39.485Z,98426.00
2018-10-05T09:12:42.704Z,98424.66
2018-10-05T09:13:49.251Z,98429.48
2018-10-05T09:14:52.717Z,98423.87
2018-10-05T09:15:55.493Z,98425.30
2018-10-05T09:16:59.314Z,98423.67
2018-10-05T09:18:03.959Z,98428.92
2018-10-05T09:19:07.222Z,98422.72
2018-10-05T09:20:10.008Z,98423.30
2018-10-05T09:21:12.817Z,98417.29
2018-10-05T09:22:15.595Z,98418.00
2018-10-05T09:23:18.516Z,98419.16
2018-10-05T09:24:25.605Z,98421.38
2018-10-05T09:25:28.776Z,98419.71
2018-10-05T09:26:31.549Z,98422.27
2018-10-05T09:27:34.367Z,98420.14
2018-10-05T09:28:40.242Z,98420.11
2018-10-05T09:29:43.031Z,98416.84
2018-10-05T09:30:45.869Z,98417.69
2018-10-05T09:31:49.052Z,98410.89
2018-10-05T09:32:51.869Z,98411.88
2018-10-05T09:33:56.028Z,98412.34
2018-10-05T09:34:58.793Z,98411.80
2018-10-05T09:36:03.442Z,98416.37
2018-10-05T09:37:07.069Z,98408.27
2018-10-05T09:38:10.910Z,98402.30
2018-10-05T09:39:14.483Z,98405.73
2018-10-05T09:40:18.081Z,98408.73
2018-10-05T09:41:21.120Z,98403.97
2018-10-05T09:42:24.615Z,98398.69
2018-10-05T09:43:28.322Z,98388.19
2018-10-05T09:44:31.515Z,98395.98
2018-10-05T09:45:35.793Z,98399.09
2018-10-05T09:46:38.625Z,98401.63
2018-10-05T09:47:43.993Z,98399.64
2018-10-05T09:48:47.660Z,98398.45
2018-10-05T09:49:52.381Z,98402.98
2018-10-05T09:50:55.600Z,98397.73
2018-10-05T09:51:58.432Z,98396.80
2018-10-05T09:53:01.287Z,98398.12
2018-10-05T09:54:04.180Z,98391.80
2018-10-05T09:55:06.967Z,98385.66
2018-10-05T09:56:10.558Z,98391.87
2018-10-05T09:57:13.712Z,98373.66
2018-10-05T09:58:17.625Z,98390.74
2018-10-05T09:59:23.030Z,98387.33
2018-10-05T10:00:33.274Z,98384.76
2018-10-05T10:01:41.522Z,98375.26
2018-10-05T10:02:48.551Z,98376.42
2018-10-05T10:03:56.887Z,98373.39
2018-10-05T10:04:59.682Z,98373.09
2018-10-05T10:06:02.811Z,98369.41
2018-10-05T10:07:06.522Z,98359.28
2018-10-05T10:08:16.189Z,98365.02
2018-10-05T10:09:19.193Z,98363.70
2018-10-05T10:10:24.077Z,98359.62
2018-10-05T10:11:26.981Z,98361.74
2018-10-05T10:12:29.803Z,98353.57
2018-10-05T10:13:33.537Z,98350.55
2018-10-05T10:14:37.711Z,98362.40
2018-10-05T10:15:40.502Z,98360.78
2018-10-05T10:16:44.295Z,98365.16
2018-10-05T10:17:47.173Z,98356.20
2018-10-05T10:18:49.951Z,98364.94
2018-10-05T10:19:52.742Z,98356.56
2018-10-05T10:20:57.521Z,98356.64
2018-10-05T10:22:00.269Z,98349.63
2018-10-05T10:23:03.205Z,98352.11
2018-10-05T10:24:05.962Z,98342.52
2018-10-05T10:25:08.939Z,98339.17
2018-10-05T10:26:12.754Z,98339.75
2018-10-05T10:27:15.872Z,98328.70
2018-10-05T10:28:19.509Z,98334.03
2018-10-05T10:29:23.969Z,98332.72
2018-10-05T10:30:26.761Z,98337.38
2018-10-05T10:43:51.441Z,98315.23
2018-10-05T10:44:54.608Z,98324.52
2018-10-05T10:45:58.713Z,98309.02
2018-10-05T10:47:02.301Z,98314.58
2018-10-05T10:48:05.599Z,98312.47
2018-10-05T10:49:09.682Z,98305.62
2018-10-05T10:50:12.956Z,98295.34
2018-10-05T10:51:15.843Z,98299.09
2018-10-05T10:52:18.610Z,98300.92
2018-10-05T10:53:21.496Z,98301.02
2018-10-05T10:54:24.405Z,98290.67
2018-10-05T10:55:28.706Z,98292.62
2018-10-05T10:56:31.547Z,98281.92
2018-10-05T10:57:34.910Z,98288.36
2018-10-05T10:58:37.708Z,98283.31
2018-10-05T10:59:40.818Z,98279.73
2018-10-05T11:00:43.709Z,98290.91
2018-10-05T11:01:46.757Z,98294.98
2018-10-05T11:02:50.122Z,98281.05
2018-10-05T11:03:53.159Z,98283.33
2018-10-05T11:04:56.043Z,98281.52
2018-10-05T11:05:59.382Z,98274.82
2018-10-05T11:07:02.213Z,98279.48
2018-10-05T11:08:05.259Z,98276.30
2018-10-05T11:09:08.051Z,98274.08
2018-10-05T11:10:10.831Z,98271.84
2018-10-05T11:11:13.714Z,98260.55
2018-10-05T11:12:16.480Z,98273.10
2018-10-05T11:13:19.260Z,98267.66
2018-10-05T11:14:22.433Z,98271.05
2018-10-05T11:15:25.233Z,98264.28
2018-10-05T11:16:27.967Z,98268.13
2018-10-05T11:17:31.199Z,98267.95
2018-10-05T11:18:34.189Z,98263.72
2018-10-05T11:19:37.150Z,98272.86
2018-10-05T11:20:40.472Z,98272.48
2018-10-05T11:21:43.323Z,98274.73
2018-10-05T11:22:48.495Z,98264.42
2018-10-05T11:23:52.529Z,98268.61
2018-10-05T11:24:56.824Z,98260.53
2018-10-05T11:26:01.668Z,98260.15
2018-10-05T11:27:07.781Z,98256.91
2018-10-05T11:28:10.665Z,98254.61
2018-10-05T11:29:16.720Z,98261.44
2018-10-05T11:30:21.553Z,98249.77
2018-10-05T11:31:24.686Z,98251.45
2018-10-05T11:32:28.300Z,98256.09
2018-10-05T11:33:31.706Z,98258.58
2018-10-05T11:34:34.576Z,98256.35
2018-10-05T11:35:37.359Z,98249.88
2018-10-05T11:36:40.134Z,98250.67
2018-10-05T11:37:43.918Z,98250.48
2018-10-05T11:38:47.364Z,98251.34
2018-10-05T11:39:51.676Z,98248.39
2018-10-05T11:40:54.612Z,98252.09
2018-10-05T11:41:57.392Z,98246.09
2018-10-05T11:43:01.181Z,98245.73
2018-10-05T11:44:04.608Z,98236.56
2018-10-05T11:45:07.383Z,98231.33
2018-10-05T11:46:10.997Z,98237.20
2018-10-05T11:47:14.450Z,98236.75
2018-10-05T11:48:17.335Z,98225.66
2018-10-05T11:49:20.175Z,98224.38
2018-10-05T11:50:22.968Z,98223.20
2018-10-05T11:51:25.708Z,98224.98
2018-10-05T11:52:29.077Z,98215.08
2018-10-05T11:53:31.934Z,98213.64
2018-10-05T11:54:34.711Z,98212.10
2018-10-05T11:55:37.532Z,98213.89
2018-10-05T11:56:42.107Z,98219.59
2018-10-05T11:57:44.866Z,98210.61
2018-10-05T11:58:48.076Z,98204.41
2018-10-05T11:59:50.966Z,98205.80
2018-10-05T12:00:53.835Z,98195.81
2018-10-05T12:01:56.607Z,98193.63
2018-10-05T12:02:59.404Z,98189.98
2018-10-05T12:04:02.531Z,98189.47
2018-10-05T12:05:06.548Z,98190.69
2018-10-05T12:06:10.239Z,98190.31
2018-10-05T12:07:13.004Z,98195.05
2018-10-05T12:08:15.842Z,98184.98
2018-10-05T12:09:19.333Z,98183.00
2018-10-05T12:10:23.705Z,98189.72
2018-10-05T12:11:26.968Z,98185.72
2018-10-05T12:12:29.723Z,98188.86
2018-10-05T12:13:32.755Z,98191.68
2018-10-05T12:14:35.545Z,98190.50
2018-10-05T12:15:38.383Z,98182.16
2018-10-05T12:16:42.093Z,98174.02
2018-10-05T12:17:45.265Z,98173.42
2018-10-05T12:18:49.048Z,98176.03
2018-10-05T12:19:51.901Z,98173.27
2018-10-05T12:20:54.719Z,98168.91
2018-10-05T12:21:59.250Z,98170.52
2018-10-05T12:23:02.865Z,98173.89
2018-10-05T12:24:07.651Z,98171.28
2018-10-05T12:25:10.410Z,98167.36
2018-10-05T12:26:13.250Z,98159.92
2018-10-05T12:27:16.057Z,98164.42
2018-10-05T12:28:18.842Z,98159.31
2018-10-05T12:29:21.624Z,98161.43
2018-10-05T12:30:24.913Z,98159.94
2018-10-05T12:31:28.637Z,98163.58
2018-10-05T12:32:31.481Z,98156.47
2018-10-05T12:33:34.469Z,98159.82
2018-10-05T12:34:37.253Z,98160.80
2018-10-05T12:35:40.003Z,98156.83
2018-10-05T12:36:43.170Z,98152.48
2018-10-05T12:37:45.943Z,98150.08
2018-10-05T12:38:48.768Z,98157.63
2018-10-05T12:39:51.510Z,98149.09
2018-10-05T12:40:54.350Z,98156.22
2018-10-05T12:41:57.147Z,98158.41
2018-10-05T12:43:01.493Z,98152.84
2018-10-05T12:44:04.308Z,98151.81
2018-10-05T12:45:07.129Z,98138.61
2018-10-05T12:46:13.441Z,98145.94
2018-10-05T12:47:16.281Z,98149.48
2018-10-05T12:48:20.872Z,98146.06